Time;durP1;ratioP1;P1;durP2;ratioP2;P2;SDS_P1;SDS_P2;PMS_P1;PMS_P2;Temp;Humidity;BMP_temperature;BMP_pressure;BME280_temperature;BME280_humidity;BME280_pressure;Samples;Min_cycle;Max_cycle;Signal;HPM_P1;HPM_P2
2022/10/25 00:00:40;;;;;;;17.10;5.72;;;12.80;99.90;;;;;;5053625;28;20068;-72
2022/10/25 00:03:10;;;;;;;16.58;5.68;;;12.80;99.90;;;;;;5039626;28;20369;-73
2022/10/25 00:05:38;;;;;;;15.20;5.80;;;12.80;99.90;;;;;;5055919;28;20076;-73
2022/10/25 00:08:04;;;;;;;20.73;5.05;;;12.90;99.90;;;;;;5053080;28;20068;-74
2022/10/25 00:10:30;;;;;;;14.73;4.15;;;12.90;99.90;;;;;;5035379;28;20036;-75
2022/10/25 00:12:56;;;;;;;16.80;5.63;;;12.90;99.90;;;;;;5052366;28;20068;-75
2022/10/25 00:15:22;;;;;;;14.88;4.55;;;12.90;99.90;;;;;;5035586;28;20025;-75
2022/10/25 00:17:48;;;;;;;14.45;4.38;;;12.90;99.90;;;;;;5053897;28;20045;-76
2022/10/25 00:20:13;;;;;;;12.57;4.70;;;12.90;99.90;;;;;;5035057;28;20029;-74
2022/10/25 00:22:39;;;;;;;21.65;5.68;;;13.00;99.90;;;;;;5053370;28;20033;-72
2022/10/25 00:25:06;;;;;;;16.98;5.00;;;13.00;99.90;;;;;;5053316;28;20704;-75
2022/10/25 00:27:32;;;;;;;16.60;5.45;;;13.00;99.90;;;;;;5053307;28;20026;-75
2022/10/25 00:29:58;;;;;;;11.38;5.20;;;12.90;99.90;;;;;;5035145;28;20017;-74
2022/10/25 00:32:24;;;;;;;10.55;4.82;;;13.00;99.90;;;;;;5053395;28;20049;-76
2022/10/25 00:34:50;;;;;;;25.05;5.55;;;13.00;99.90;;;;;;5052935;28;20029;-75
2022/10/25 00:37:15;;;;;;;16.95;5.13;;;13.00;99.90;;;;;;5053765;28;20041;-75
2022/10/25 00:39:41;;;;;;;14.57;5.90;;;13.00;99.90;;;;;;5053049;28;20022;-75
2022/10/25 00:42:14;;;;;;;18.70;5.28;;;13.00;99.90;;;;;;5052966;28;20066;-75
2022/10/25 00:44:40;;;;;;;16.65;5.57;;;13.00;99.90;;;;;;5035343;28;20060;-75
2022/10/25 00:47:05;;;;;;;15.93;5.47;;;13.00;99.90;;;;;;5052472;28;20665;-76
2022/10/25 00:49:32;;;;;;;18.00;5.00;;;13.00;99.90;;;;;;5052793;28;20029;-75
2022/10/25 00:52:01;;;;;;;17.35;5.93;;;13.00;99.90;;;;;;5053142;28;20044;-74
2022/10/25 00:54:35;;;;;;;15.30;5.38;;;13.00;99.90;;;;;;5052951;28;20041;-76
2022/10/25 00:57:04;;;;;;;;;;;13.00;99.90;;;;;;5055131;28;20029;-75
2022/10/25 00:59:31;;;;;;;24.08;5.95;;;13.00;99.90;;;;;;5052110;28;19974;-74
2022/10/25 01:01:57;;;;;;;15.73;5.10;;;13.10;99.90;;;;;;5052716;28;20021;-74
2022/10/25 01:04:26;;;;;;;17.60;6.10;;;13.10;99.90;;;;;;5035294;28;20044;-76
2022/10/25 01:06:52;;;;;;;14.35;5.88;;;13.10;99.90;;;;;;5054030;28;20033;-72
2022/10/25 01:09:24;;;;;;;16.55;6.45;;;13.20;99.90;;;;;;5053548;28;20025;-73
2022/10/25 01:11:50;;;;;;;22.00;6.63;;;13.20;99.90;;;;;;5053313;28;20037;-76
2022/10/25 01:14:17;;;;;;;22.90;6.82;;;13.20;99.90;;;;;;5053951;28;20028;-76
2022/10/25 01:17:21;;;;;;;17.10;6.90;;;13.20;99.90;;;;;;5035081;28;20026;-73
2022/10/25 01:20:26;;;;;;;19.30;7.55;;;13.30;99.90;;;;;;5021513;28;20061;-74
2022/10/25 01:23:10;;;;;;;;;;;13.30;99.90;;;;;;5020625;28;20057;-72
2022/10/25 01:26:01;;;;;;;24.02;7.70;;;13.30;99.90;;;;;;5048455;28;19915;-73
2022/10/25 01:28:32;;;;;;;19.27;8.65;;;13.30;99.90;;;;;;5043091;28;20390;-78
2022/10/25 01:31:07;;;;;;;17.80;8.32;;;13.30;99.90;;;;;;5034288;28;20053;-76
2022/10/25 01:34:15;;;;;;;16.60;8.20;;;13.30;99.90;;;;;;5055702;28;20063;-79
2022/10/25 01:36:59;;;;;;;20.80;8.73;;;13.30;99.90;;;;;;5026611;28;20033;-79
2022/10/25 01:39:32;;;;;;;22.50;8.70;;;13.30;99.90;;;;;;5035280;28;20029;-80
2022/10/25 01:42:17;;;;;;;27.38;9.60;;;13.30;99.90;;;;;;5052125;28;20879;-80
2022/10/25 01:45:01;;;;;;;23.25;9.10;;;13.30;99.90;;;;;;5035370;28;20036;-76
2022/10/25 01:47:43;;;;;;;24.57;10.03;;;13.30;99.90;;;;;;5034582;28;20096;-78
2022/10/25 01:50:19;;;;;;;25.63;9.30;;;13.30;99.90;;;;;;5034548;28;20275;-84
2022/10/25 01:52:45;;;;;;;30.77;9.52;;;13.30;99.90;;;;;;5060175;28;20036;-75
2022/10/25 01:55:12;;;;;;;21.13;9.32;;;13.30;99.90;;;;;;5052495;28;20108;-81
2022/10/25 01:58:03;;;;;;;24.60;10.38;;;13.30;99.90;;;;;;5033946;28;20085;-79
2022/10/25 02:00:34;;;;;;;25.90;9.88;;;13.30;99.90;;;;;;5034357;28;20032;-78
2022/10/25 02:03:06;;;;;;;24.75;9.43;;;13.30;99.90;;;;;;5052590;28;20071;-78
2022/10/25 02:05:58;;;;;;;21.13;9.50;;;13.30;99.90;;;;;;5052605;28;20025;-80
2022/10/25 02:08:47;;;;;;;21.40;9.90;;;13.30;99.90;;;;;;5035803;28;20048;-78
2022/10/25 02:11:16;;;;;;;21.17;10.05;;;13.30;99.90;;;;;;5052490;28;20028;-77
2022/10/25 02:13:53;;;;;;;22.50;10.45;;;13.30;99.90;;;;;;5054480;28;20025;-78
2022/10/25 02:16:33;;;;;;;20.13;9.90;;;13.30;99.90;;;;;;5041781;28;20158;-80
2022/10/25 02:19:02;;;;;;;20.73;10.25;;;13.30;99.90;;;;;;5052537;28;20033;-77
2022/10/25 02:21:31;;;;;;;23.33;11.20;;;13.30;99.90;;;;;;5035913;28;20027;-77
2022/10/25 02:23:58;;;;;;;21.75;10.35;;;13.40;99.90;;;;;;5033931;28;20021;-78
2022/10/25 02:26:26;;;;;;;27.98;11.10;;;13.30;99.90;;;;;;5033718;28;20037;-76
2022/10/25 02:28:53;;;;;;;24.23;10.35;;;13.30;99.90;;;;;;5034256;28;20040;-75
2022/10/25 02:31:22;;;;;;;24.90;10.73;;;13.30;99.90;;;;;;5052501;28;20120;-77
2022/10/25 02:33:48;;;;;;;23.45;10.52;;;13.30;99.90;;;;;;5033027;28;20044;-75
2022/10/25 02:36:14;;;;;;;29.67;11.13;;;13.30;99.90;;;;;;5051110;28;20025;-76
2022/10/25 02:38:42;;;;;;;22.08;10.93;;;13.30;99.90;;;;;;5051968;28;20686;-76
2022/10/25 02:41:08;;;;;;;24.52;10.73;;;13.30;99.90;;;;;;5051617;28;20017;-77
2022/10/25 02:43:34;;;;;;;24.77;10.68;;;13.30;99.90;;;;;;5034036;28;20446;-76
2022/10/25 02:46:06;;;;;;;29.27;10.68;;;13.30;99.90;;;;;;5051358;28;20029;-77
2022/10/25 02:48:34;;;;;;;19.40;10.30;;;13.30;99.90;;;;;;5013260;28;20053;-78
2022/10/25 02:50:59;;;;;;;23.42;10.45;;;13.30;99.90;;;;;;5024240;28;20039;-77
2022/10/25 02:53:25;;;;;;;27.23;9.95;;;13.40;99.90;;;;;;5031679;28;20054;-78
2022/10/25 02:56:07;;;;;;;36.42;11.15;;;13.30;99.90;;;;;;5031832;28;20033;-77
2022/10/25 02:58:36;;;;;;;23.70;11.07;;;13.40;99.90;;;;;;5031533;28;20420;-76
2022/10/25 03:01:03;;;;;;;29.27;11.35;;;13.40;99.90;;;;;;5029932;28;20018;-78
2022/10/25 03:03:29;;;;;;;24.15;11.00;;;13.30;99.90;;;;;;5031511;28;20033;-74
2022/10/25 03:05:55;;;;;;;22.40;10.60;;;13.30;99.90;;;;;;5014293;28;20029;-77
2022/10/25 03:08:21;;;;;;;28.05;12.10;;;13.30;99.90;;;;;;5032385;28;20120;-76
2022/10/25 03:10:49;;;;;;;35.47;12.48;;;13.40;99.90;;;;;;5028891;28;20056;-76
2022/10/25 03:13:15;;;;;;;25.00;11.90;;;13.30;99.90;;;;;;5031975;28;20101;-74
2022/10/25 03:15:42;;;;;;;24.50;11.70;;;13.30;99.90;;;;;;5031232;28;20061;-77
2022/10/25 03:18:08;;;;;;;25.92;10.73;;;13.30;99.90;;;;;;5031773;28;20029;-77
2022/10/25 03:20:33;;;;;;;30.48;12.25;;;13.40;99.90;;;;;;5029935;28;20037;-78
2022/10/25 03:22:59;;;;;;;27.92;11.05;;;13.40;99.90;;;;;;5031283;28;20056;-75
2022/10/25 03:25:25;;;;;;;22.58;10.70;;;13.40;99.90;;;;;;5031052;28;20030;-78
2022/10/25 03:27:50;;;;;;;25.90;11.90;;;13.40;99.90;;;;;;5030875;28;20048;-77
2022/10/25 03:30:16;;;;;;;23.50;10.90;;;13.40;99.90;;;;;;5012676;28;20492;-76
2022/10/25 03:32:42;;;;;;;24.85;12.02;;;13.40;99.90;;;;;;5031598;28;20040;-77
2022/10/25 03:35:08;;;;;;;25.40;12.32;;;13.40;99.90;;;;;;5029164;28;20747;-80
2022/10/25 03:37:34;;;;;;;21.48;11.10;;;13.40;99.90;;;;;;5027793;28;20039;-77
2022/10/25 03:39:59;;;;;;;27.80;11.82;;;13.40;99.90;;;;;;5031072;28;20112;-76
2022/10/25 03:42:25;;;;;;;24.92;11.80;;;13.30;99.90;;;;;;5030116;28;20049;-75
2022/10/25 03:44:51;;;;;;;32.67;13.18;;;13.30;99.90;;;;;;5028830;28;20401;-77
2022/10/25 03:47:17;;;;;;;25.63;11.88;;;13.30;99.90;;;;;;5033656;28;20117;-78
2022/10/25 03:49:43;;;;;;;31.60;12.63;;;13.30;99.90;;;;;;5031585;28;20041;-78
2022/10/25 03:52:10;;;;;;;36.20;12.60;;;13.40;99.90;;;;;;5032423;28;20033;-78
2022/10/25 03:54:35;;;;;;;36.42;12.32;;;13.40;99.90;;;;;;5030037;28;20038;-77
2022/10/25 03:57:02;;;;;;;23.45;11.45;;;13.30;99.90;;;;;;5031573;28;20034;-78
2022/10/25 03:59:27;;;;;;;27.35;12.02;;;13.30;99.90;;;;;;5034320;28;20052;-78
2022/10/25 04:01:53;;;;;;;33.75;13.15;;;13.30;99.90;;;;;;5032474;28;20022;-80
2022/10/25 04:04:19;;;;;;;25.45;11.63;;;13.30;99.90;;;;;;5029052;28;20017;-74
2022/10/25 04:06:44;;;;;;;27.80;12.38;;;13.30;99.90;;;;;;5030093;28;20107;-76
2022/10/25 04:09:10;;;;;;;28.95;11.70;;;13.30;99.90;;;;;;5030557;28;20105;-76
2022/10/25 04:11:36;;;;;;;26.83;11.98;;;13.30;99.90;;;;;;5030019;28;20029;-76
2022/10/25 04:14:01;;;;;;;29.10;12.35;;;13.30;99.90;;;;;;5030598;28;20030;-79
2022/10/25 04:16:27;;;;;;;27.15;12.07;;;13.30;99.90;;;;;;5030881;28;20033;-75
2022/10/25 04:18:53;;;;;;;33.35;13.55;;;13.30;99.90;;;;;;5030510;28;20025;-75
2022/10/25 04:21:20;;;;;;;30.27;13.20;;;13.30;99.90;;;;;;5030876;28;20029;-73
2022/10/25 04:23:46;;;;;;;34.53;13.48;;;13.30;99.90;;;;;;5030143;28;20049;-76
2022/10/25 04:26:16;;;;;;;34.28;13.48;;;13.30;99.90;;;;;;5012979;28;20045;-75
2022/10/25 04:28:43;;;;;;;32.03;12.98;;;13.40;99.90;;;;;;5031045;28;20096;-75
2022/10/25 04:31:09;;;;;;;28.20;13.65;;;13.40;99.90;;;;;;5030573;28;20021;-75
2022/10/25 04:33:35;;;;;;;33.97;14.13;;;13.40;99.90;;;;;;5030326;28;20034;-76
2022/10/25 04:36:01;;;;;;;25.23;13.27;;;13.40;99.90;;;;;;5033978;28;20045;-76
2022/10/25 04:38:26;;;;;;;31.75;13.52;;;13.40;99.90;;;;;;5023597;28;20062;-75
2022/10/25 04:40:57;;;;;;;30.27;14.73;;;13.30;99.90;;;;;;5016124;28;20071;-77
2022/10/25 04:43:23;;;;;;;32.15;14.00;;;13.30;99.90;;;;;;5024577;28;21080;-76
2022/10/25 04:45:50;;;;;;;33.53;14.45;;;13.30;99.90;;;;;;5033329;28;20060;-77
2022/10/25 04:48:16;;;;;;;31.88;14.70;;;13.30;99.90;;;;;;5031447;28;20029;-75
2022/10/25 04:50:42;;;;;;;31.73;15.40;;;13.30;99.90;;;;;;5033562;28;20179;-75
2022/10/25 04:53:08;;;;;;;33.28;16.15;;;13.30;99.90;;;;;;5033584;28;20026;-75
2022/10/25 04:55:34;;;;;;;27.77;15.60;;;13.30;99.90;;;;;;5033389;28;20053;-76
2022/10/25 04:57:59;;;;;;;36.55;16.50;;;13.30;99.90;;;;;;5034504;28;20048;-77
2022/10/25 05:00:26;;;;;;;37.20;16.75;;;13.30;99.90;;;;;;5034959;28;20030;-77
2022/10/25 05:02:52;;;;;;;32.05;15.63;;;13.30;99.90;;;;;;5033758;28;20077;-78
2022/10/25 05:05:19;;;;;;;32.00;16.58;;;13.30;99.90;;;;;;5034956;28;20085;-77
2022/10/25 05:07:44;;;;;;;43.72;17.58;;;13.30;99.90;;;;;;5034790;28;20034;-77
2022/10/25 05:10:10;;;;;;;40.03;17.35;;;13.30;99.90;;;;;;5035203;28;20020;-76
2022/10/25 05:12:36;;;;;;;34.22;17.02;;;13.20;99.90;;;;;;5017860;28;20025;-75
2022/10/25 05:15:02;;;;;;;37.90;18.30;;;13.30;99.90;;;;;;5027374;28;20064;-76
2022/10/25 05:17:28;;;;;;;35.58;17.38;;;13.30;99.90;;;;;;5035066;28;20052;-77
2022/10/25 05:19:54;;;;;;;36.55;17.95;;;13.30;99.90;;;;;;5017653;28;20025;-78
2022/10/25 05:22:19;;;;;;;34.20;18.27;;;13.20;99.90;;;;;;5033593;28;20030;-75
2022/10/25 05:24:45;;;;;;;34.35;18.05;;;13.20;99.90;;;;;;5034766;28;20034;-77
2022/10/25 05:27:11;;;;;;;39.13;18.13;;;13.30;99.90;;;;;;5026195;28;20113;-77
2022/10/25 05:29:36;;;;;;;41.05;18.48;;;13.30;99.90;;;;;;5030059;28;20029;-76
2022/10/25 05:32:02;;;;;;;41.72;18.85;;;13.30;99.90;;;;;;5034203;28;20033;-77
2022/10/25 05:34:28;;;;;;;40.28;17.20;;;13.30;99.90;;;;;;5015689;28;20029;-77
2022/10/25 05:36:54;;;;;;;40.13;17.05;;;13.30;99.90;;;;;;5031480;28;20071;-77
2022/10/25 05:39:19;;;;;;;38.38;18.15;;;13.30;99.90;;;;;;5030567;28;20030;-76
2022/10/25 05:41:45;;;;;;;36.97;17.45;;;13.30;99.90;;;;;;5032532;28;20054;-75
2022/10/25 05:44:11;;;;;;;49.75;18.33;;;13.30;99.90;;;;;;5033296;28;20048;-76
2022/10/25 05:46:36;;;;;;;39.00;17.58;;;13.30;99.90;;;;;;5032046;28;20037;-78
2022/10/25 05:49:02;;;;;;;36.30;16.88;;;13.30;99.90;;;;;;5033707;28;20133;-73
2022/10/25 05:51:32;;;;;;;49.72;17.52;;;13.30;99.90;;;;;;5034126;28;20757;-75
2022/10/25 05:53:59;;;;;;;32.70;18.42;;;13.30;99.90;;;;;;5014517;28;20166;-75
2022/10/25 05:56:29;;;;;;;31.58;17.00;;;13.30;99.90;;;;;;5031232;28;20063;-75
2022/10/25 05:58:58;;;;;;;37.08;17.33;;;13.30;99.90;;;;;;5032469;28;20567;-74
2022/10/25 06:01:25;;;;;;;33.92;17.27;;;13.30;99.90;;;;;;5032454;28;20030;-76
2022/10/25 06:04:03;;;;;;;39.13;16.90;;;13.30;99.90;;;;;;5031465;28;20025;-77
2022/10/25 06:06:28;;;;;;;35.50;17.90;;;13.30;99.90;;;;;;5034399;28;20021;-77
2022/10/25 06:08:58;;;;;;;36.72;17.40;;;13.30;99.90;;;;;;5033775;28;20149;-77
2022/10/25 06:11:25;;;;;;;33.05;16.65;;;13.30;99.90;;;;;;5033365;28;20088;-76
2022/10/25 06:13:51;;;;;;;37.10;16.10;;;13.30;99.90;;;;;;5016875;28;20026;-78
2022/10/25 06:16:18;;;;;;;36.17;15.85;;;13.30;99.90;;;;;;5032746;28;20029;-77
2022/10/25 06:18:44;;;;;;;38.15;16.02;;;13.30;99.90;;;;;;5032262;28;20462;-76
2022/10/25 06:21:13;;;;;;;41.50;16.90;;;13.30;99.90;;;;;;5014963;28;20053;-76
2022/10/25 06:23:39;;;;;;;27.85;14.85;;;13.30;99.90;;;;;;5034305;28;20029;-76
2022/10/25 06:26:10;;;;;;;35.15;15.30;;;13.30;99.90;;;;;;5033406;28;20041;-74
2022/10/25 06:28:37;;;;;;;36.55;15.40;;;13.30;99.90;;;;;;5034208;28;20050;-75
2022/10/25 06:31:09;;;;;;;33.67;14.70;;;13.30;99.90;;;;;;5033310;28;20192;-77
2022/10/25 06:33:35;;;;;;;35.95;14.55;;;13.30;99.90;;;;;;5034778;28;20040;-77
2022/10/25 06:36:02;;;;;;;39.03;15.63;;;13.30;99.90;;;;;;5031981;28;20049;-75
2022/10/25 06:38:28;;;;;;;35.17;15.52;;;13.30;99.90;;;;;;5032786;28;20029;-75
2022/10/25 06:41:03;;;;;;;36.42;15.07;;;13.40;99.90;;;;;;5031766;28;20030;-74
2022/10/25 06:43:29;;;;;;;;;;;13.30;99.90;;;;;;5018253;28;20033;-75
2022/10/25 06:45:55;;;;;;;30.00;13.95;;;13.40;99.90;;;;;;5032703;28;19959;-76
2022/10/25 06:48:21;;;;;;;34.90;15.65;;;13.40;99.90;;;;;;5034133;28;20132;-74
2022/10/25 06:50:47;;;;;;;33.15;14.55;;;13.40;99.90;;;;;;5033520;28;20037;-75
2022/10/25 06:53:13;;;;;;;36.55;15.30;;;13.40;99.90;;;;;;5034030;28;20017;-75
2022/10/25 06:55:39;;;;;;;29.63;14.05;;;13.40;99.90;;;;;;5031399;28;20029;-75
2022/10/25 06:58:04;;;;;;;30.77;13.48;;;13.40;99.90;;;;;;5033915;28;20028;-75
2022/10/25 07:00:30;;;;;;;26.30;13.75;;;13.40;99.90;;;;;;5013475;28;20018;-75
2022/10/25 07:02:57;;;;;;;30.33;13.32;;;13.50;99.90;;;;;;5012726;28;20044;-74
2022/10/25 07:05:24;;;;;;;26.13;12.50;;;13.50;99.90;;;;;;5030561;28;20036;-76
2022/10/25 07:07:49;;;;;;;25.70;12.43;;;13.50;99.90;;;;;;5031005;28;20049;-73
2022/10/25 07:10:16;;;;;;;24.52;11.70;;;13.40;99.90;;;;;;5031396;28;20025;-75
2022/10/25 07:12:42;;;;;;;32.17;12.27;;;13.50;99.90;;;;;;5034213;28;20029;-75
2022/10/25 07:15:08;;;;;;;32.35;12.40;;;13.40;99.90;;;;;;5015180;28;20032;-76
2022/10/25 07:17:34;;;;;;;32.03;12.60;;;13.40;99.90;;;;;;5031065;28;20062;-76
2022/10/25 07:19:59;;;;;;;24.60;12.40;;;13.40;99.90;;;;;;5013729;28;20033;-74
2022/10/25 07:22:25;;;;;;;29.20;13.10;;;13.50;99.90;;;;;;5034699;28;20133;-75
2022/10/25 07:24:51;;;;;;;30.90;11.85;;;13.50;99.90;;;;;;5031343;28;20017;-78
2022/10/25 07:27:17;;;;;;;30.75;12.30;;;13.50;99.90;;;;;;5031393;28;20028;-76
2022/10/25 07:29:43;;;;;;;31.52;13.18;;;13.60;99.90;;;;;;5034340;28;20087;-77
2022/10/25 07:32:09;;;;;;;39.83;12.80;;;13.70;99.90;;;;;;5032323;28;20532;-76
2022/10/25 07:34:35;;;;;;;28.13;12.80;;;13.70;99.90;;;;;;5031416;28;20088;-74
2022/10/25 07:37:01;;;;;;;38.60;11.13;;;13.80;99.90;;;;;;5033877;28;20049;-75
2022/10/25 07:39:27;;;;;;;27.55;12.07;;;13.80;99.90;;;;;;5030722;28;20060;-79
2022/10/25 07:41:53;;;;;;;29.10;12.23;;;13.80;99.90;;;;;;5032336;28;20028;-77
2022/10/25 07:44:19;;;;;;;26.25;11.48;;;13.80;99.90;;;;;;5013777;28;20025;-76
2022/10/25 07:46:45;;;;;;;25.63;10.88;;;13.80;99.90;;;;;;5029891;28;20099;-74
2022/10/25 07:49:11;;;;;;;28.42;11.27;;;13.90;99.90;;;;;;5033211;28;20549;-76
2022/10/25 07:51:45;;;;;;;28.45;11.57;;;13.90;99.90;;;;;;5034250;28;20075;-77
2022/10/25 07:54:11;;;;;;;33.35;12.30;;;13.90;99.90;;;;;;5031263;28;20609;-75
2022/10/25 07:56:36;;;;;;;33.75;12.40;;;14.00;99.90;;;;;;5020462;28;20042;-78
2022/10/25 07:59:02;;;;;;;28.45;11.40;;;14.20;99.90;;;;;;5035944;28;20032;-75
2022/10/25 08:01:28;;;;;;;29.60;11.25;;;14.30;99.90;;;;;;5019231;28;20113;-75
2022/10/25 08:03:55;;;;;;;28.85;11.60;;;14.30;99.90;;;;;;5018034;28;20041;-77
2022/10/25 08:06:23;;;;;;;28.92;12.10;;;14.40;99.90;;;;;;5014283;28;20116;-78
2022/10/25 08:08:48;;;;;;;27.50;11.18;;;14.50;99.90;;;;;;5033565;28;20049;-77
2022/10/25 08:11:14;;;;;;;25.83;11.55;;;14.50;99.90;;;;;;5020222;28;20029;-75
2022/10/25 08:13:40;;;;;;;28.60;10.90;;;14.60;99.90;;;;;;5028185;28;20049;-76
2022/10/25 08:16:07;;;;;;;28.63;11.70;;;14.60;99.90;;;;;;5023291;28;20034;-75
2022/10/25 08:18:33;;;;;;;35.10;10.75;;;14.60;99.90;;;;;;5023494;28;20104;-75
2022/10/25 08:21:02;;;;;;;29.17;10.80;;;14.70;99.90;;;;;;5023517;28;20030;-75
2022/10/25 08:23:30;;;;;;;31.88;10.45;;;14.70;99.90;;;;;;5023533;28;20456;-77
2022/10/25 08:25:59;;;;;;;30.77;10.32;;;14.70;99.90;;;;;;5038527;28;20026;-76
2022/10/25 08:28:25;;;;;;;20.67;9.02;;;14.70;99.90;;;;;;5023589;28;20061;-73
2022/10/25 08:30:53;;;;;;;26.05;10.23;;;14.80;99.90;;;;;;5037119;28;20033;-78
2022/10/25 08:33:18;;;;;;;21.85;8.88;;;14.80;99.90;;;;;;5024536;28;20018;-76
2022/10/25 08:35:44;;;;;;;24.65;9.10;;;14.90;99.90;;;;;;5024290;28;20057;-79
2022/10/25 08:38:09;;;;;;;19.85;8.82;;;15.00;99.90;;;;;;5039662;28;20149;-80
2022/10/25 08:41:02;;;;;;;20.15;8.88;;;15.10;99.90;;;;;;5024068;28;20022;-74
2022/10/25 08:43:38;;;;;;;17.80;7.88;;;15.10;99.90;;;;;;5023652;28;20018;-74
2022/10/25 08:46:33;;;;;;;25.92;9.13;;;15.10;99.90;;;;;;5023623;28;20030;-75
2022/10/25 08:49:26;;;;;;;21.52;7.88;;;15.00;99.90;;;;;;5022383;28;20053;-82
2022/10/25 08:51:53;;;;;;;21.17;8.10;;;15.00;99.90;;;;;;5038131;28;20128;-75
2022/10/25 08:54:31;;;;;;;19.50;8.38;;;15.00;99.90;;;;;;5031296;28;20045;-76
2022/10/25 08:57:21;;;;;;;21.83;8.30;;;15.00;99.90;;;;;;5036130;28;20026;-76
2022/10/25 08:59:51;;;;;;;22.83;7.72;;;15.00;99.90;;;;;;5037537;28;20037;-75
2022/10/25 09:02:25;;;;;;;22.02;7.63;;;15.10;99.90;;;;;;5035823;28;20025;-75
2022/10/25 09:04:51;;;;;;;27.30;8.15;;;15.20;99.90;;;;;;5040753;28;20039;-75
2022/10/25 09:07:53;;;;;;;25.77;8.02;;;15.30;99.90;;;;;;5030135;28;20021;-73
2022/10/25 09:10:41;;;;;;;22.30;7.10;;;15.30;99.90;;;;;;5036338;28;20030;-75
2022/10/25 09:13:12;;;;;;;15.35;6.38;;;15.30;99.90;;;;;;5033519;28;20071;-76
2022/10/25 09:15:58;;;;;;;19.70;6.80;;;15.30;99.90;;;;;;5019289;28;20018;-76
2022/10/25 09:18:36;;;;;;;17.92;7.00;;;15.20;99.90;;;;;;5035443;28;20025;-75
2022/10/25 09:21:08;;;;;;;22.55;7.60;;;15.20;99.90;;;;;;5035304;28;20059;-74
2022/10/25 09:23:34;;;;;;;20.55;7.32;;;15.10;99.90;;;;;;5036909;28;20029;-76
2022/10/25 09:26:38;;;;;;;20.35;7.60;;;15.10;99.90;;;;;;5035170;28;20036;-73
2022/10/25 09:29:14;;;;;;;21.25;7.25;;;15.00;99.90;;;;;;5034475;28;20132;-77
2022/10/25 09:31:46;;;;;;;16.98;6.65;;;15.00;99.90;;;;;;5031698;28;20040;-75
2022/10/25 09:34:15;;;;;;;14.63;6.18;;;15.10;99.90;;;;;;5034997;28;20052;-76
2022/10/25 09:36:45;;;;;;;15.00;6.07;;;15.10;99.90;;;;;;5033952;28;20030;-76
2022/10/25 09:39:41;;;;;;;17.38;7.43;;;15.20;99.90;;;;;;5035691;28;20049;-73
2022/10/25 09:42:19;;;;;;;22.80;7.18;;;15.20;99.90;;;;;;5027381;28;20042;-73
2022/10/25 09:44:55;;;;;;;21.25;6.80;;;15.20;99.90;;;;;;5033040;28;20021;-77
2022/10/25 09:47:51;;;;;;;27.98;7.68;;;15.30;99.90;;;;;;5033421;28;20018;-75
2022/10/25 09:50:40;;;;;;;19.80;7.30;;;15.40;99.90;;;;;;5034386;28;20076;-76
2022/10/25 09:53:11;;;;;;;24.25;7.13;;;15.40;99.90;;;;;;5032400;28;20018;-76
2022/10/25 09:55:46;;;;;;;23.30;7.85;;;15.30;99.90;;;;;;5032368;28;20036;-73
2022/10/25 09:58:18;;;;;;;17.40;7.45;;;15.30;99.90;;;;;;5022631;28;20032;-73
2022/10/25 10:00:44;;;;;;;20.45;6.88;;;15.20;99.90;;;;;;5032791;28;20036;-76
2022/10/25 10:03:12;;;;;;;19.50;6.55;;;15.20;99.90;;;;;;5032456;28;20108;-77
2022/10/25 10:05:40;;;;;;;19.17;6.45;;;15.20;99.90;;;;;;5032457;28;20025;-76
2022/10/25 10:08:08;;;;;;;16.75;6.82;;;15.20;99.90;;;;;;5030491;28;20048;-77
2022/10/25 10:10:34;;;;;;;17.48;6.68;;;15.20;99.90;;;;;;5032383;28;20029;-76
2022/10/25 10:13:00;;;;;;;24.27;7.38;;;15.10;99.90;;;;;;5032761;28;20025;-76
2022/10/25 10:15:54;;;;;;;22.58;7.55;;;15.10;99.90;;;;;;5033513;28;20040;-76
2022/10/25 10:18:28;;;;;;;18.52;6.00;;;15.20;99.90;;;;;;5015151;28;20025;-76
2022/10/25 10:21:04;;;;;;;22.17;6.53;;;15.20;99.90;;;;;;5032051;28;20065;-72
2022/10/25 10:23:48;;;;;;;19.15;6.53;;;15.20;99.90;;;;;;5034048;28;20334;-75
2022/10/25 10:26:34;;;;;;;19.97;6.07;;;15.20;99.90;;;;;;5030208;28;20068;-74
2022/10/25 10:29:03;;;;;;;17.95;5.57;;;15.40;99.90;;;;;;5033807;28;20553;-75
2022/10/25 10:31:38;;;;;;;15.88;6.15;;;15.50;99.90;;;;;;5034117;28;20021;-74
2022/10/25 10:34:05;;;;;;;15.25;5.65;;;15.60;99.90;;;;;;5032152;28;20025;-75
2022/10/25 10:36:32;;;;;;;15.45;5.90;;;15.80;99.90;;;;;;5031462;28;20033;-74
2022/10/25 10:39:21;;;;;;;15.30;5.97;;;15.80;99.90;;;;;;5016664;28;20049;-72
2022/10/25 10:42:02;;;;;;;16.20;5.35;;;15.90;99.90;;;;;;5032867;28;20030;-74
2022/10/25 10:44:35;;;;;;;17.58;5.55;;;15.90;99.90;;;;;;5032404;28;20044;-75
2022/10/25 10:47:10;;;;;;;26.40;5.97;;;15.80;99.90;;;;;;5017922;28;20033;-74
2022/10/25 10:49:40;;;;;;;22.75;5.25;;;15.70;99.90;;;;;;5033987;28;20025;-74
2022/10/25 10:52:30;;;;;;;15.65;5.32;;;15.50;99.90;;;;;;5018410;28;20021;-72
2022/10/25 10:54:57;;;;;;;13.68;5.63;;;15.50;99.90;;;;;;5030911;28;20520;-74
2022/10/25 10:57:33;;;;;;;17.77;5.28;;;15.40;99.90;;;;;;5033391;28;20029;-76
2022/10/25 11:00:01;;;;;;;13.35;5.13;;;15.40;99.90;;;;;;5032388;28;21497;-76
2022/10/25 11:02:26;;;;;;;17.13;5.18;;;15.30;99.90;;;;;;5031708;28;20050;-74
2022/10/25 11:04:54;;;;;;;19.45;5.32;;;15.40;99.90;;;;;;5021667;28;20037;-75
2022/10/25 11:07:34;;;;;;;18.13;5.55;;;15.40;99.90;;;;;;5032615;28;20025;-78
2022/10/25 11:10:15;;;;;;;20.20;5.60;;;15.50;99.90;;;;;;5030958;28;20021;-75
2022/10/25 11:12:41;;;;;;;14.77;5.88;;;15.50;99.90;;;;;;5021548;28;20199;-75
2022/10/25 11:15:14;;;;;;;15.98;6.10;;;15.60;99.90;;;;;;5032404;28;20038;-76
2022/10/25 11:17:57;;;;;;;17.15;5.47;;;15.70;99.90;;;;;;5031986;28;20040;-72
2022/10/25 11:20:32;;;;;;;13.52;5.28;;;15.70;99.90;;;;;;5025603;28;20037;-76
2022/10/25 11:23:06;;;;;;;14.45;5.47;;;15.70;99.90;;;;;;5036046;28;20033;-76
2022/10/25 11:25:48;;;;;;;16.10;4.78;;;15.70;99.90;;;;;;5028267;28;20076;-75
2022/10/25 11:28:20;;;;;;;18.48;5.05;;;15.60;99.90;;;;;;5031044;28;20029;-72
2022/10/25 11:31:08;;;;;;;14.43;5.13;;;15.50;99.90;;;;;;5031564;28;20029;-74
2022/10/25 11:34:00;;;;;;;16.77;4.93;;;15.50;99.90;;;;;;5029945;28;20116;-76
2022/10/25 11:36:41;;;;;;;18.40;4.82;;;15.50;99.90;;;;;;4998636;28;20083;-78
2022/10/25 11:39:33;;;;;;;12.70;5.28;;;15.50;99.90;;;;;;5029899;28;20116;-76
2022/10/25 11:42:17;;;;;;;18.95;4.72;;;15.70;99.90;;;;;;5031340;28;20061;-75
2022/10/25 11:45:12;;;;;;;14.10;4.30;;;16.40;99.90;;;;;;5023453;28;20329;-74
2022/10/25 11:47:49;;;;;;;18.73;4.22;;;17.40;99.90;;;;;;5036100;28;20037;-74
2022/10/25 11:50:41;;;;;;;22.42;5.75;;;18.00;99.90;;;;;;5036087;28;20030;-76
2022/10/25 11:53:23;;;;;;;21.42;5.45;;;18.10;99.90;;;;;;5007228;28;20034;-75
2022/10/25 11:56:25;;;;;;;16.33;6.07;;;18.20;99.90;;;;;;5035660;28;20018;-78
2022/10/25 11:59:07;;;;;;;17.60;5.45;;;18.40;99.90;;;;;;5034832;28;20014;-77
2022/10/25 12:02:04;;;;;;;23.38;6.00;;;18.60;99.90;;;;;;5035477;28;20406;-74
2022/10/25 12:04:44;;;;;;;19.35;5.47;;;18.90;99.90;;;;;;5034098;28;20033;-74
2022/10/25 12:07:09;;;;;;;15.35;5.45;;;19.00;99.90;;;;;;5034259;28;20048;-80
2022/10/25 12:09:56;;;;;;;12.55;5.22;;;19.10;99.90;;;;;;5034874;28;20086;-75
2022/10/25 12:12:29;;;;;;;13.50;4.93;;;19.10;99.90;;;;;;5036311;28;20056;-75
2022/10/25 12:14:58;;;;;;;23.00;4.70;;;19.10;99.90;;;;;;5019187;28;20041;-74
2022/10/25 12:17:28;;;;;;;16.00;4.45;;;19.10;99.90;;;;;;5034972;28;20022;-76
2022/10/25 12:20:00;;;;;;;16.10;4.05;;;19.10;99.90;;;;;;5034292;28;20025;-77
2022/10/25 12:22:32;;;;;;;16.65;4.35;;;19.10;99.90;;;;;;5034403;28;20030;-76
2022/10/25 12:25:03;;;;;;;16.35;4.05;;;19.00;99.90;;;;;;5034617;28;20080;-74
2022/10/25 12:27:29;;;;;;;7.88;3.65;;;18.70;99.90;;;;;;5035312;28;20573;-75
2022/10/25 12:30:06;;;;;;;11.45;4.30;;;18.40;99.90;;;;;;5037895;28;20064;-77
2022/10/25 12:32:49;;;;;;;12.02;3.30;;;18.30;99.90;;;;;;5038306;28;20025;-77
2022/10/25 12:35:38;;;;;;;9.90;3.25;;;18.40;99.90;;;;;;5034100;28;20076;-72
2022/10/25 12:38:16;;;;;;;12.23;3.42;;;18.40;99.90;;;;;;5033649;28;20118;-75
2022/10/25 12:40:46;;;;;;;19.83;4.50;;;18.10;99.90;;;;;;5033944;28;20032;-78
2022/10/25 12:43:37;;;;;;;9.30;3.97;;;17.90;99.90;;;;;;5034593;28;20044;-75
2022/10/25 12:46:37;;;;;;;8.13;3.90;;;18.00;99.90;;;;;;5033983;28;20043;-76
2022/10/25 12:49:12;;;;;;;14.50;3.80;;;18.00;99.90;;;;;;5015391;28;20049;-77
2022/10/25 12:51:56;;;;;;;14.13;4.28;;;17.70;99.90;;;;;;5033744;28;20033;-77
2022/10/25 12:54:41;;;;;;;12.23;4.20;;;17.40;99.90;;;;;;5034329;28;20118;-75